sensor_id;sensor_type;location;lat;lon;timestamp;pressure;altitude;pressure_sealevel;temperature;humidity
39209;BME280;24929;51.982;4.664;2023-04-19T00:00:15;78209.66;;;-143.36;nan
39209;BME280;24929;51.982;4.664;2023-04-19T00:02:40;78193.59;;;-143.36;nan
39209;BME280;24929;51.982;4.664;2023-04-19T00:05:06;78175.53;;;-143.36;nan
39209;BME280;24929;51.982;4.664;2023-04-19T00:07:32;78197.63;;;-143.36;nan
39209;BME280;24929;51.982;4.664;2023-04-19T00:09:57;78211.69;;;-143.36;nan
39209;BME280;24929;51.982;4.664;2023-04-19T00:12:22;78171.53;;;-143.36;nan
39209;BME280;24929;51.982;4.664;2023-04-19T00:14:48;78193.59;;;-143.36;nan
39209;BME280;24929;51.982;4.664;2023-04-19T00:17:13;78223.72;;;-143.36;nan
39209;BME280;24929;51.982;4.664;2023-04-19T00:19:38;78235.78;;;-143.36;nan
39209;BME280;24929;51.982;4.664;2023-04-19T00:22:04;78237.78;;;-143.36;nan
39209;BME280;24929;51.982;4.664;2023-04-19T00:24:29;78253.84;;;-143.36;nan
39209;BME280;24929;51.982;4.664;2023-04-19T00:26:55;78233.75;;;-143.36;nan
39209;BME280;24929;51.982;4.664;2023-04-19T00:29:21;78165.50;;;-143.36;nan
39209;BME280;24929;51.982;4.664;2023-04-19T00:31:47;78231.75;;;-143.36;nan
39209;BME280;24929;51.982;4.664;2023-04-19T00:34:12;78233.75;;;-143.36;nan
39209;BME280;24929;51.982;4.664;2023-04-19T00:36:37;78197.63;;;-143.36;nan
39209;BME280;24929;51.982;4.664;2023-04-19T00:39:03;78225.72;;;-143.36;nan
39209;BME280;24929;51.982;4.664;2023-04-19T00:41:28;78173.53;;;-143.36;nan
39209;BME280;24929;51.982;4.664;2023-04-19T00:43:53;78193.59;;;-143.36;nan
39209;BME280;24929;51.982;4.664;2023-04-19T00:46:19;78143.41;;;-143.36;nan
39209;BME280;24929;51.982;4.664;2023-04-19T00:48:45;78137.41;;;-143.36;nan
39209;BME280;24929;51.982;4.664;2023-04-19T00:51:11;78127.38;;;-143.36;nan
39209;BME280;24929;51.982;4.664;2023-04-19T00:53:37;78071.16;;;-143.36;nan
39209;BME280;24929;51.982;4.664;2023-04-19T00:56:03;78045.06;;;-143.36;nan
39209;BME280;24929;51.982;4.664;2023-04-19T00:58:29;78067.13;;;-143.36;nan
39209;BME280;24929;51.982;4.664;2023-04-19T01:00:56;78077.19;;;-143.36;nan
39209;BME280;24929;51.982;4.664;2023-04-19T01:03:21;78063.13;;;-143.36;nan
39209;BME280;24929;51.982;4.664;2023-04-19T01:05:47;78037.03;;;-143.36;nan
39209;BME280;24929;51.982;4.664;2023-04-19T01:08:13;77986.84;;;-143.36;nan
39209;BME280;24929;51.982;4.664;2023-04-19T01:10:38;78008.91;;;-143.36;nan
39209;BME280;24929;51.982;4.664;2023-04-19T01:13:04;78024.97;;;-143.36;nan
39209;BME280;24929;51.982;4.664;2023-04-19T01:15:29;77994.88;;;-143.36;nan
39209;BME280;24929;51.982;4.664;2023-04-19T01:17:56;78014.94;;;-143.36;nan
39209;BME280;24929;51.982;4.664;2023-04-19T01:20:22;77972.78;;;-143.36;nan
39209;BME280;24929;51.982;4.664;2023-04-19T01:22:47;77950.69;;;-143.36;nan
39209;BME280;24929;51.982;4.664;2023-04-19T01:25:12;77964.75;;;-143.36;nan
39209;BME280;24929;51.982;4.664;2023-04-19T01:27:38;77974.78;;;-143.36;nan
39209;BME280;24929;51.982;4.664;2023-04-19T01:30:04;77960.75;;;-143.36;nan
39209;BME280;24929;51.982;4.664;2023-04-19T01:32:29;77952.72;;;-143.36;nan
39209;BME280;24929;51.982;4.664;2023-04-19T01:34:54;77930.63;;;-143.36;nan
39209;BME280;24929;51.982;4.664;2023-04-19T01:37:20;77972.78;;;-143.36;nan
39209;BME280;24929;51.982;4.664;2023-04-19T01:39:45;78049.06;;;-143.36;nan
39209;BME280;24929;51.982;4.664;2023-04-19T01:42:11;77980.81;;;-143.36;nan
39209;BME280;24929;51.982;4.664;2023-04-19T01:44:36;77996.88;;;-143.36;nan
39209;BME280;24929;51.982;4.664;2023-04-19T01:47:01;78085.19;;;-143.36;nan
39209;BME280;24929;51.982;4.664;2023-04-19T01:49:27;78002.91;;;-143.36;nan
39209;BME280;24929;51.982;4.664;2023-04-19T01:51:52;78035.03;;;-143.36;nan
39209;BME280;24929;51.982;4.664;2023-04-19T01:54:17;78053.09;;;-143.36;nan
39209;BME280;24929;51.982;4.664;2023-04-19T01:56:43;78097.25;;;-143.36;nan
39209;BME280;24929;51.982;4.664;2023-04-19T01:59:08;78101.25;;;-143.36;nan
39209;BME280;24929;51.982;4.664;2023-04-19T02:01:33;78131.38;;;-143.36;nan
39209;BME280;24929;51.982;4.664;2023-04-19T02:03:59;78089.22;;;-143.36;nan
39209;BME280;24929;51.982;4.664;2023-04-19T02:06:24;78089.22;;;-143.36;nan
39209;BME280;24929;51.982;4.664;2023-04-19T02:08:51;78139.41;;;-143.36;nan
39209;BME280;24929;51.982;4.664;2023-04-19T02:11:16;78153.47;;;-143.36;nan
39209;BME280;24929;51.982;4.664;2023-04-19T02:13:42;78171.53;;;-143.36;nan
39209;BME280;24929;51.982;4.664;2023-04-19T02:16:08;78093.22;;;-143.36;nan
39209;BME280;24929;51.982;4.664;2023-04-19T02:18:34;78195.63;;;-143.36;nan
39209;BME280;24929;51.982;4.664;2023-04-19T02:21:03;78167.50;;;-143.36;nan
39209;BME280;24929;51.982;4.664;2023-04-19T02:23:29;78187.59;;;-143.36;nan
39209;BME280;24929;51.982;4.664;2023-04-19T02:25:54;78183.56;;;-143.36;nan
39209;BME280;24929;51.982;4.664;2023-04-19T02:28:20;78159.47;;;-143.36;nan
39209;BME280;24929;51.982;4.664;2023-04-19T02:30:45;78147.44;;;-143.36;nan
39209;BME280;24929;51.982;4.664;2023-04-19T02:33:11;78191.59;;;-143.36;nan
39209;BME280;24929;51.982;4.664;2023-04-19T02:35:36;78145.44;;;-143.36;nan
39209;BME280;24929;51.982;4.664;2023-04-19T02:38:02;78177.56;;;-143.36;nan
39209;BME280;24929;51.982;4.664;2023-04-19T02:40:28;78151.44;;;-143.36;nan
39209;BME280;24929;51.982;4.664;2023-04-19T02:42:54;78117.31;;;-143.36;nan
39209;BME280;24929;51.982;4.664;2023-04-19T02:45:19;78171.53;;;-143.36;nan
39209;BME280;24929;51.982;4.664;2023-04-19T02:47:45;78201.66;;;-143.36;nan
39209;BME280;24929;51.982;4.664;2023-04-19T02:50:11;78125.34;;;-143.36;nan
39209;BME280;24929;51.982;4.664;2023-04-19T02:52:36;78243.81;;;-143.36;nan
39209;BME280;24929;51.982;4.664;2023-04-19T02:55:02;78239.78;;;-143.36;nan
39209;BME280;24929;51.982;4.664;2023-04-19T02:57:28;78171.53;;;-143.36;nan
39209;BME280;24929;51.982;4.664;2023-04-19T02:59:54;78129.38;;;-143.36;nan
39209;BME280;24929;51.982;4.664;2023-04-19T03:02:20;78137.41;;;-143.36;nan
39209;BME280;24929;51.982;4.664;2023-04-19T03:04:45;78199.63;;;-143.36;nan
39209;BME280;24929;51.982;4.664;2023-04-19T03:07:11;78189.59;;;-143.36;nan
39209;BME280;24929;51.982;4.664;2023-04-19T03:09:37;78157.47;;;-143.36;nan
39209;BME280;24929;51.982;4.664;2023-04-19T03:12:03;78207.66;;;-143.36;nan
39209;BME280;24929;51.982;4.664;2023-04-19T03:14:28;78153.47;;;-143.36;nan
39209;BME280;24929;51.982;4.664;2023-04-19T03:16:53;78149.44;;;-143.36;nan
39209;BME280;24929;51.982;4.664;2023-04-19T03:19:19;78207.66;;;-143.36;nan
39209;BME280;24929;51.982;4.664;2023-04-19T03:21:44;78149.44;;;-143.36;nan
39209;BME280;24929;51.982;4.664;2023-04-19T03:24:10;78147.44;;;-143.36;nan
39209;BME280;24929;51.982;4.664;2023-04-19T03:26:36;78145.44;;;-143.36;nan
39209;BME280;24929;51.982;4.664;2023-04-19T03:29:04;78065.13;;;-143.36;nan
39209;BME280;24929;51.982;4.664;2023-04-19T03:31:30;78129.38;;;-143.36;nan
39209;BME280;24929;51.982;4.664;2023-04-19T03:33:55;78141.41;;;-143.36;nan
39209;BME280;24929;51.982;4.664;2023-04-19T03:36:21;78125.34;;;-143.36;nan
39209;BME280;24929;51.982;4.664;2023-04-19T03:38:46;78133.38;;;-143.36;nan
39209;BME280;24929;51.982;4.664;2023-04-19T03:41:25;78004.91;;;-143.36;nan
39209;BME280;24929;51.982;4.664;2023-04-19T03:43:51;78041.03;;;-143.36;nan
39209;BME280;24929;51.982;4.664;2023-04-19T03:46:16;78103.28;;;-143.36;nan
39209;BME280;24929;51.982;4.664;2023-04-19T03:48:42;78095.25;;;-143.36;nan
39209;BME280;24929;51.982;4.664;2023-04-19T03:51:07;78127.38;;;-143.36;nan
39209;BME280;24929;51.982;4.664;2023-04-19T03:53:33;78107.28;;;-143.36;nan
39209;BME280;24929;51.982;4.664;2023-04-19T03:55:58;78195.63;;;-143.36;nan
39209;BME280;24929;51.982;4.664;2023-04-19T03:58:23;78133.38;;;-143.36;nan
39209;BME280;24929;51.982;4.664;2023-04-19T04:00:49;78119.34;;;-143.36;nan
39209;BME280;24929;51.982;4.664;2023-04-19T04:03:16;78097.25;;;-143.36;nan
39209;BME280;24929;51.982;4.664;2023-04-19T04:05:41;78097.25;;;-143.36;nan
39209;BME280;24929;51.982;4.664;2023-04-19T04:08:06;78101.25;;;-143.36;nan
39209;BME280;24929;51.982;4.664;2023-04-19T04:10:32;78083.19;;;-143.36;nan
39209;BME280;24929;51.982;4.664;2023-04-19T04:12:57;78053.09;;;-143.36;nan
39209;BME280;24929;51.982;4.664;2023-04-19T04:15:22;78117.31;;;-143.36;nan
39209;BME280;24929;51.982;4.664;2023-04-19T04:17:49;78063.13;;;-143.36;nan
39209;BME280;24929;51.982;4.664;2023-04-19T04:20:14;78131.38;;;-143.36;nan
39209;BME280;24929;51.982;4.664;2023-04-19T04:22:44;78059.09;;;-143.36;nan
39209;BME280;24929;51.982;4.664;2023-04-19T04:25:13;78177.56;;;-143.36;nan
39209;BME280;24929;51.982;4.664;2023-04-19T04:27:40;78121.34;;;-143.36;nan
39209;BME280;24929;51.982;4.664;2023-04-19T04:30:07;78141.41;;;-143.36;nan
39209;BME280;24929;51.982;4.664;2023-04-19T04:32:33;78147.44;;;-143.36;nan
39209;BME280;24929;51.982;4.664;2023-04-19T04:35:06;78024.97;;;-143.36;nan
39209;BME280;24929;51.982;4.664;2023-04-19T04:37:32;78127.38;;;-143.36;nan
39209;BME280;24929;51.982;4.664;2023-04-19T04:39:59;78123.34;;;-143.36;nan
39209;BME280;24929;51.982;4.664;2023-04-19T04:42:24;78141.41;;;-143.36;nan
39209;BME280;24929;51.982;4.664;2023-04-19T04:44:50;78067.13;;;-143.36;nan
39209;BME280;24929;51.982;4.664;2023-04-19T04:47:16;78087.22;;;-143.36;nan
39209;BME280;24929;51.982;4.664;2023-04-19T04:49:43;78101.25;;;-143.36;nan
39209;BME280;24929;51.982;4.664;2023-04-19T04:52:08;78119.34;;;-143.36;nan
39209;BME280;24929;51.982;4.664;2023-04-19T04:54:33;78075.16;;;-143.36;nan
39209;BME280;24929;51.982;4.664;2023-04-19T04:56:59;78067.13;;;-143.36;nan
39209;BME280;24929;51.982;4.664;2023-04-19T04:59:25;78047.06;;;-143.36;nan
39209;BME280;24929;51.982;4.664;2023-04-19T05:01:51;78111.31;;;-143.36;nan
39209;BME280;24929;51.982;4.664;2023-04-19T05:04:17;78095.25;;;-143.36;nan
39209;BME280;24929;51.982;4.664;2023-04-19T05:06:43;78053.09;;;-143.36;nan
39209;BME280;24929;51.982;4.664;2023-04-19T05:09:09;78069.16;;;-143.36;nan
39209;BME280;24929;51.982;4.664;2023-04-19T05:11:34;78127.38;;;-143.36;nan
39209;BME280;24929;51.982;4.664;2023-04-19T05:14:00;78145.44;;;-143.36;nan
39209;BME280;24929;51.982;4.664;2023-04-19T05:16:26;78101.25;;;-143.36;nan
39209;BME280;24929;51.982;4.664;2023-04-19T05:18:51;78099.25;;;-143.36;nan
39209;BME280;24929;51.982;4.664;2023-04-19T05:21:16;78119.34;;;-143.36;nan
39209;BME280;24929;51.982;4.664;2023-04-19T05:23:42;78105.28;;;-143.36;nan
39209;BME280;24929;51.982;4.664;2023-04-19T05:29:32;78027.00;;;-143.36;nan
39209;BME280;24929;51.982;4.664;2023-04-19T05:31:57;77970.78;;;-143.36;nan
39209;BME280;24929;51.982;4.664;2023-04-19T05:34:23;77972.78;;;-143.36;nan
39209;BME280;24929;51.982;4.664;2023-04-19T05:36:49;77982.81;;;-143.36;nan
39209;BME280;24929;51.982;4.664;2023-04-19T05:39:14;77848.31;;;-143.36;nan
39209;BME280;24929;51.982;4.664;2023-04-19T05:41:39;77808.19;;;-143.36;nan
39209;BME280;24929;51.982;4.664;2023-04-19T05:44:05;77838.28;;;-143.36;nan
39209;BME280;24929;51.982;4.664;2023-04-19T05:46:31;77830.25;;;-143.36;nan
39209;BME280;24929;51.982;4.664;2023-04-19T05:48:56;77786.09;;;-143.36;nan
39209;BME280;24929;51.982;4.664;2023-04-19T05:51:21;77768.03;;;-143.36;nan
39209;BME280;24929;51.982;4.664;2023-04-19T05:53:47;77804.16;;;-143.36;nan
39209;BME280;24929;51.982;4.664;2023-04-19T05:56:12;77868.41;;;-143.36;nan
39209;BME280;24929;51.982;4.664;2023-04-19T06:01:59;77747.97;;;-143.36;nan
39209;BME280;24929;51.982;4.664;2023-04-19T06:04:25;77766.03;;;-143.36;nan
39209;BME280;24929;51.982;4.664;2023-04-19T06:06:51;77727.88;;;-143.36;nan
39209;BME280;24929;51.982;4.664;2023-04-19T06:09:16;77681.72;;;-143.36;nan
39209;BME280;24929;51.982;4.664;2023-04-19T06:11:45;77685.72;;;-143.36;nan
39209;BME280;24929;51.982;4.664;2023-04-19T06:14:11;77653.63;;;-143.36;nan
39209;BME280;24929;51.982;4.664;2023-04-19T06:16:38;77663.66;;;-143.36;nan
39209;BME280;24929;51.982;4.664;2023-04-19T06:19:04;77675.69;;;-143.36;nan
39209;BME280;24929;51.982;4.664;2023-04-19T06:21:30;77691.75;;;-143.36;nan
39209;BME280;24929;51.982;4.664;2023-04-19T06:23:55;77703.81;;;-143.36;nan
39209;BME280;24929;51.982;4.664;2023-04-19T06:26:21;77643.56;;;-143.36;nan
39209;BME280;24929;51.982;4.664;2023-04-19T06:28:46;77725.88;;;-143.36;nan
39209;BME280;24929;51.982;4.664;2023-04-19T06:31:12;77651.59;;;-143.36;nan
39209;BME280;24929;51.982;4.664;2023-04-19T06:33:37;77760.00;;;-143.36;nan
39209;BME280;24929;51.982;4.664;2023-04-19T06:36:03;77743.94;;;-143.36;nan
39209;BME280;24929;51.982;4.664;2023-04-19T06:38:28;77747.97;;;-143.36;nan
39209;BME280;24929;51.982;4.664;2023-04-19T06:40:56;77731.91;;;-143.36;nan
39209;BME280;24929;51.982;4.664;2023-04-19T06:43:23;77774.06;;;-143.36;nan
39209;BME280;24929;51.982;4.664;2023-04-19T06:45:56;77739.94;;;-143.36;nan
39209;BME280;24929;51.982;4.664;2023-04-19T06:48:21;77663.66;;;-143.36;nan
39209;BME280;24929;51.982;4.664;2023-04-19T06:50:46;77709.81;;;-143.36;nan
39209;BME280;24929;51.982;4.664;2023-04-19T06:53:12;77717.84;;;-143.36;nan
39209;BME280;24929;51.982;4.664;2023-04-19T06:55:37;77774.06;;;-143.36;nan
39209;BME280;24929;51.982;4.664;2023-04-19T06:58:02;77669.69;;;-143.36;nan
39209;BME280;24929;51.982;4.664;2023-04-19T07:00:28;77645.59;;;-143.36;nan
39209;BME280;24929;51.982;4.664;2023-04-19T07:02:53;77579.34;;;-143.36;nan
39209;BME280;24929;51.982;4.664;2023-04-19T07:05:19;77657.63;;;-143.36;nan
39209;BME280;24929;51.982;4.664;2023-04-19T07:07:44;77579.34;;;-143.36;nan
39209;BME280;24929;51.982;4.664;2023-04-19T07:10:10;77603.44;;;-143.36;nan
39209;BME280;24929;51.982;4.664;2023-04-19T07:12:37;77591.38;;;-143.36;nan
39209;BME280;24929;51.982;4.664;2023-04-19T07:15:03;77577.34;;;-143.36;nan
39209;BME280;24929;51.982;4.664;2023-04-19T07:17:28;77416.75;;;-143.36;nan
39209;BME280;24929;51.982;4.664;2023-04-19T07:19:53;77428.81;;;-143.36;nan
39209;BME280;24929;51.982;4.664;2023-04-19T07:22:19;77481.00;;;-143.36;nan
39209;BME280;24929;51.982;4.664;2023-04-19T07:24:44;77565.28;;;-143.36;nan
39209;BME280;24929;51.982;4.664;2023-04-19T07:27:10;77440.84;;;-143.36;nan
39209;BME280;24929;51.982;4.664;2023-04-19T07:29:35;77478.97;;;-143.36;nan
39209;BME280;24929;51.982;4.664;2023-04-19T07:32:01;77529.16;;;-143.36;nan
39209;BME280;24929;51.982;4.664;2023-04-19T07:34:27;77464.94;;;-143.36;nan
39209;BME280;24929;51.982;4.664;2023-04-19T07:36:52;77645.59;;;-143.36;nan
39209;BME280;24929;51.982;4.664;2023-04-19T07:39:17;77693.75;;;-143.36;nan
39209;BME280;24929;51.982;4.664;2023-04-19T07:41:43;77567.31;;;-143.36;nan
39209;BME280;24929;51.982;4.664;2023-04-19T07:44:09;77489.03;;;-143.36;nan
39209;BME280;24929;51.982;4.664;2023-04-19T07:46:35;77637.56;;;-143.36;nan
39209;BME280;24929;51.982;4.664;2023-04-19T07:49:01;77507.09;;;-143.36;nan
39209;BME280;24929;51.982;4.664;2023-04-19T07:51:26;77342.50;;;-143.36;nan
39209;BME280;24929;51.982;4.664;2023-04-19T07:53:52;77489.03;;;-143.36;nan
39209;BME280;24929;51.982;4.664;2023-04-19T07:56:17;77372.59;;;-143.36;nan
39209;BME280;24929;51.982;4.664;2023-04-19T07:58:44;77539.19;;;-143.36;nan
39209;BME280;24929;51.982;4.664;2023-04-19T08:01:10;77454.91;;;-143.36;nan
39209;BME280;24929;51.982;4.664;2023-04-19T08:03:36;77617.47;;;-143.36;nan
39209;BME280;24929;51.982;4.664;2023-04-19T08:06:04;77380.63;;;-143.36;nan
39209;BME280;24929;51.982;4.664;2023-04-19T08:08:31;77535.19;;;-143.36;nan
39209;BME280;24929;51.982;4.664;2023-04-19T08:10:56;77523.16;;;-143.36;nan
39209;BME280;24929;51.982;4.664;2023-04-19T08:13:22;77440.84;;;-143.36;nan
39209;BME280;24929;51.982;4.664;2023-04-19T08:15:47;77454.91;;;-143.36;nan
39209;BME280;24929;51.982;4.664;2023-04-19T08:18:13;77376.63;;;-143.36;nan
39209;BME280;24929;51.982;4.664;2023-04-19T08:20:38;77318.41;;;-143.36;nan
39209;BME280;24929;51.982;4.664;2023-04-19T08:23:07;77438.84;;;-143.36;nan
39209;BME280;24929;51.982;4.664;2023-04-19T08:25:33;77352.53;;;-143.36;nan
39209;BME280;24929;51.982;4.664;2023-04-19T08:27:58;77332.47;;;-143.36;nan
39209;BME280;24929;51.982;4.664;2023-04-19T08:30:24;77310.38;;;-143.36;nan
39209;BME280;24929;51.982;4.664;2023-04-19T08:32:49;77422.78;;;-143.36;nan
39209;BME280;24929;51.982;4.664;2023-04-19T08:35:15;77378.63;;;-143.36;nan
39209;BME280;24929;51.982;4.664;2023-04-19T08:37:43;77316.41;;;-143.36;nan
39209;BME280;24929;51.982;4.664;2023-04-19T08:40:09;77464.94;;;-143.36;nan
39209;BME280;24929;51.982;4.664;2023-04-19T08:42:35;77282.28;;;-143.36;nan
39209;BME280;24929;51.982;4.664;2023-04-19T08:45:01;77304.38;;;-143.36;nan
39209;BME280;24929;51.982;4.664;2023-04-19T08:47:31;77356.53;;;-143.36;nan
39209;BME280;24929;51.982;4.664;2023-04-19T08:50:03;77334.47;;;-143.36;nan
39209;BME280;24929;51.982;4.664;2023-04-19T08:52:32;77362.56;;;-143.36;nan
39209;BME280;24929;51.982;4.664;2023-04-19T08:55:00;77338.47;;;-143.36;nan
39209;BME280;24929;51.982;4.664;2023-04-19T08:57:32;77432.81;;;-143.36;nan
39209;BME280;24929;51.982;4.664;2023-04-19T08:59:59;77424.78;;;-143.36;nan
39209;BME280;24929;51.982;4.664;2023-04-19T09:02:25;77603.44;;;-143.36;nan
39209;BME280;24929;51.982;4.664;2023-04-19T09:04:51;77503.06;;;-143.36;nan
39209;BME280;24929;51.982;4.664;2023-04-19T09:07:23;77525.16;;;-143.36;nan
39209;BME280;24929;51.982;4.664;2023-04-19T09:10:06;77414.75;;;-143.36;nan
39209;BME280;24929;51.982;4.664;2023-04-19T09:12:36;77422.78;;;-143.36;nan
39209;BME280;24929;51.982;4.664;2023-04-19T09:15:02;77412.75;;;-143.36;nan
39209;BME280;24929;51.982;4.664;2023-04-19T09:17:29;77422.78;;;-143.36;nan
39209;BME280;24929;51.982;4.664;2023-04-19T09:19:55;77442.84;;;-143.36;nan
39209;BME280;24929;51.982;4.664;2023-04-19T09:22:21;77472.97;;;-143.36;nan
39209;BME280;24929;51.982;4.664;2023-04-19T09:24:46;77418.78;;;-143.36;nan
39209;BME280;24929;51.982;4.664;2023-04-19T09:27:14;77394.69;;;-143.36;nan
39209;BME280;24929;51.982;4.664;2023-04-19T09:29:52;77364.56;;;-143.36;nan
39209;BME280;24929;51.982;4.664;2023-04-19T09:32:18;77476.97;;;-143.36;nan
39209;BME280;24929;51.982;4.664;2023-04-19T09:35:03;77442.84;;;-143.36;nan
39209;BME280;24929;51.982;4.664;2023-04-19T09:37:29;77539.19;;;-143.36;nan
39209;BME280;24929;51.982;4.664;2023-04-19T09:39:55;77462.94;;;-143.36;nan
39209;BME280;24929;51.982;4.664;2023-04-19T09:42:21;77487.00;;;-143.36;nan
39209;BME280;24929;51.982;4.664;2023-04-19T09:44:55;77436.84;;;-143.36;nan
39209;BME280;24929;51.982;4.664;2023-04-19T09:47:24;77406.72;;;-143.36;nan
39209;BME280;24929;51.982;4.664;2023-04-19T09:50:03;77402.72;;;-143.36;nan
39209;BME280;24929;51.982;4.664;2023-04-19T09:52:31;77402.72;;;-143.36;nan
39209;BME280;24929;51.982;4.664;2023-04-19T09:54:57;77460.91;;;-143.36;nan
39209;BME280;24929;51.982;4.664;2023-04-19T09:57:25;77470.97;;;-143.36;nan
39209;BME280;24929;51.982;4.664;2023-04-19T09:59:50;77537.19;;;-143.36;nan
39209;BME280;24929;51.982;4.664;2023-04-19T10:02:16;77442.84;;;-143.36;nan
39209;BME280;24929;51.982;4.664;2023-04-19T10:04:43;77442.84;;;-143.36;nan
39209;BME280;24929;51.982;4.664;2023-04-19T10:07:09;77464.94;;;-143.36;nan
39209;BME280;24929;51.982;4.664;2023-04-19T10:09:35;77426.78;;;-143.36;nan
39209;BME280;24929;51.982;4.664;2023-04-19T10:12:03;77408.72;;;-143.36;nan
39209;BME280;24929;51.982;4.664;2023-04-19T10:14:33;77410.75;;;-143.36;nan
39209;BME280;24929;51.982;4.664;2023-04-19T10:17:00;77404.72;;;-143.36;nan
39209;BME280;24929;51.982;4.664;2023-04-19T10:19:27;77466.94;;;-143.36;nan
39209;BME280;24929;51.982;4.664;2023-04-19T10:21:53;77527.16;;;-143.36;nan
39209;BME280;24929;51.982;4.664;2023-04-19T10:24:21;77460.91;;;-143.36;nan
39209;BME280;24929;51.982;4.664;2023-04-19T10:30:19;77410.75;;;-143.36;nan
39209;BME280;24929;51.982;4.664;2023-04-19T10:32:51;77511.09;;;-143.36;nan
39209;BME280;24929;51.982;4.664;2023-04-19T10:35:22;77495.03;;;-143.36;nan
39209;BME280;24929;51.982;4.664;2023-04-19T10:38:04;77404.72;;;-143.36;nan
39209;BME280;24929;51.982;4.664;2023-04-19T10:43:28;77406.72;;;-143.36;nan
39209;BME280;24929;51.982;4.664;2023-04-19T10:45:54;77342.50;;;-143.36;nan
39209;BME280;24929;51.982;4.664;2023-04-19T10:51:03;77392.69;;;-143.36;nan
39209;BME280;24929;51.982;4.664;2023-04-19T10:56:15;77366.59;;;-143.36;nan
39209;BME280;24929;51.982;4.664;2023-04-19T11:01:34;77284.28;;;-143.36;nan
39209;BME280;24929;51.982;4.664;2023-04-19T11:04:13;77328.44;;;-143.36;nan
39209;BME280;24929;51.982;4.664;2023-04-19T11:07:05;77256.19;;;-143.36;nan
39209;BME280;24929;51.982;4.664;2023-04-19T11:09:39;77306.38;;;-143.36;nan
39209;BME280;24929;51.982;4.664;2023-04-19T11:12:18;77306.38;;;-143.36;nan
39209;BME280;24929;51.982;4.664;2023-04-19T11:15:01;77340.50;;;-143.36;nan
39209;BME280;24929;51.982;4.664;2023-04-19T11:17:30;77304.38;;;-143.36;nan
39209;BME280;24929;51.982;4.664;2023-04-19T11:20:00;77264.22;;;-143.36;nan
39209;BME280;24929;51.982;4.664;2023-04-19T11:22:35;77264.22;;;-143.36;nan
39209;BME280;24929;51.982;4.664;2023-04-19T11:25:14;77210.03;;;-143.36;nan
39209;BME280;24929;51.982;4.664;2023-04-19T11:27:42;77358.56;;;-143.36;nan
39209;BME280;24929;51.982;4.664;2023-04-19T11:30:09;77290.31;;;-143.36;nan
39209;BME280;24929;51.982;4.664;2023-04-19T11:32:35;77258.19;;;-143.36;nan
39209;BME280;24929;51.982;4.664;2023-04-19T11:35:06;77250.16;;;-143.36;nan
39209;BME280;24929;51.982;4.664;2023-04-19T11:37:36;77298.34;;;-143.36;nan
39209;BME280;24929;51.982;4.664;2023-04-19T11:40:04;77254.19;;;-143.36;nan
39209;BME280;24929;51.982;4.664;2023-04-19T11:42:30;77268.25;;;-143.36;nan
39209;BME280;24929;51.982;4.664;2023-04-19T11:44:56;77224.06;;;-143.36;nan
39209;BME280;24929;51.982;4.664;2023-04-19T11:47:23;77210.03;;;-143.36;nan
39209;BME280;24929;51.982;4.664;2023-04-19T11:49:49;77210.03;;;-143.36;nan
39209;BME280;24929;51.982;4.664;2023-04-19T11:52:22;77165.88;;;-143.36;nan
39209;BME280;24929;51.982;4.664;2023-04-19T11:54:48;77169.88;;;-143.36;nan
39209;BME280;24929;51.982;4.664;2023-04-19T11:57:13;77232.09;;;-143.36;nan
39209;BME280;24929;51.982;4.664;2023-04-19T12:00:05;77157.84;;;-143.36;nan
39209;BME280;24929;51.982;4.664;2023-04-19T12:02:36;77230.09;;;-143.36;nan
39209;BME280;24929;51.982;4.664;2023-04-19T12:05:12;77141.78;;;-143.36;nan
39209;BME280;24929;51.982;4.664;2023-04-19T12:08:04;77097.63;;;-143.36;nan
39209;BME280;24929;51.982;4.664;2023-04-19T12:10:31;77113.69;;;-143.36;nan
39209;BME280;24929;51.982;4.664;2023-04-19T12:12:57;77228.09;;;-143.36;nan
39209;BME280;24929;51.982;4.664;2023-04-19T12:15:23;77200.00;;;-143.36;nan
39209;BME280;24929;51.982;4.664;2023-04-19T12:17:59;77089.59;;;-143.36;nan
39209;BME280;24929;51.982;4.664;2023-04-19T12:20:33;77073.56;;;-143.36;nan
39209;BME280;24929;51.982;4.664;2023-04-19T12:22:58;77059.50;;;-143.36;nan
39209;BME280;24929;51.982;4.664;2023-04-19T12:25:30;77053.47;;;-143.36;nan
39209;BME280;24929;51.982;4.664;2023-04-19T12:27:56;77111.69;;;-143.36;nan
39209;BME280;24929;51.982;4.664;2023-04-19T12:30:22;77145.81;;;-143.36;nan
39209;BME280;24929;51.982;4.664;2023-04-19T12:32:47;77288.31;;;-143.36;nan
39209;BME280;24929;51.982;4.664;2023-04-19T12:35:15;77240.13;;;-143.36;nan
39209;BME280;24929;51.982;4.664;2023-04-19T12:37:41;77276.25;;;-143.36;nan
39209;BME280;24929;51.982;4.664;2023-04-19T12:40:06;77097.63;;;-143.36;nan
39209;BME280;24929;51.982;4.664;2023-04-19T12:42:32;77200.00;;;-143.36;nan
39209;BME280;24929;51.982;4.664;2023-04-19T12:44:57;77165.88;;;-143.36;nan
39209;BME280;24929;51.982;4.664;2023-04-19T12:47:23;77179.94;;;-143.36;nan
39209;BME280;24929;51.982;4.664;2023-04-19T12:49:48;77123.72;;;-143.36;nan
39209;BME280;24929;51.982;4.664;2023-04-19T12:52:14;77079.56;;;-143.36;nan
39209;BME280;24929;51.982;4.664;2023-04-19T12:54:39;77035.41;;;-143.36;nan
39209;BME280;24929;51.982;4.664;2023-04-19T12:57:05;77113.69;;;-143.36;nan
39209;BME280;24929;51.982;4.664;2023-04-19T12:59:30;77101.66;;;-143.36;nan
39209;BME280;24929;51.982;4.664;2023-04-19T13:01:56;77059.50;;;-143.36;nan
39209;BME280;24929;51.982;4.664;2023-04-19T13:04:21;77167.88;;;-143.36;nan
39209;BME280;24929;51.982;4.664;2023-04-19T13:06:47;77093.63;;;-143.36;nan
39209;BME280;24929;51.982;4.664;2023-04-19T13:09:12;77021.38;;;-143.36;nan
39209;BME280;24929;51.982;4.664;2023-04-19T13:11:37;77009.31;;;-143.36;nan
39209;BME280;24929;51.982;4.664;2023-04-19T13:14:03;76975.22;;;-143.36;nan
39209;BME280;24929;51.982;4.664;2023-04-19T13:16:28;77033.41;;;-143.36;nan
39209;BME280;24929;51.982;4.664;2023-04-19T13:18:53;77069.53;;;-143.36;nan